Flight Track Log - Related Links

Times and Time Zones

All times are in EDT time to prevent confusion due to time zone crossing. See the SWA561 flight status page for this flight to view local times or setup timezone preferences in your user account.

Time Position Orientation Groundspeed Altitude Reporting Facility
EDT Latitude Longitude Course Direction KTS MPH feet Rate Location/Type
Thu 08:27:07 PM 37.7333 -122.2667 150° Southeast 170 196 1,500  Level Northern Cal TRACON
Thu 08:27:53 PM 37.7547 -122.2939 315° West 193 222 2,800 2,278 Climbing Oakland Center
Thu 08:28:55 PM 37.7744 -122.3686 288° West 222 255 5,600 2,537 Climbing Oakland Center
Thu 08:29:56 PM 37.7436 -122.4478 244° Southwest 265 305 8,000 2,049 Climbing Oakland Center
Thu 08:30:58 PM 37.6708 -122.4961 208° Southwest 303 349 9,800 1,951 Climbing Oakland Center
Thu 08:31:59 PM 37.5633 -122.4875 176° South 325 374 12,000 2,459 Climbing Oakland Center
Thu 08:32:00 PM 37.3302 -122.3620 150° Southeast  Level FlightAware Approximate
Thu 08:33:00 PM 37.4789 -122.4269 150° Southeast 353 406 14,800  Level Oakland Center
Thu 08:34:02 PM 37.4114 -122.3311 132° Southeast 367 422 16,800 2,049 Climbing Oakland Center
Thu 08:35:03 PM 37.3392 -122.2308 132° Southeast 383 441 19,000 2,066 Climbing Oakland Center
Thu 08:36:04 PM 37.2639 -122.1283 133° Southeast 397 457 21,000 1,967 Climbing Oakland Center
Thu 08:37:05 PM 37.1883 -122.0231 132° Southeast 405 466 23,000 1,707 Climbing Oakland Center
Thu 08:38:07 PM 37.1097 -121.9156 133° Southeast 416 479 24,500 1,610 Climbing Oakland Center
Thu 08:39:08 PM 37.0289 -121.8044 132° Southeast 430 495 26,300 1,525 Climbing Oakland Center
Thu 08:40:09 PM 36.9442 -121.6944 134° Southeast 436 502 27,600 1,317 Climbing Oakland Center
Thu 08:41:11 PM 36.8428 -121.5558 132° Southeast 449 517 29,000 1,220 Climbing Oakland Center
Thu 08:42:12 PM 36.7631 -121.4500 133° Southeast 460 529 30,100 1,033 Climbing Oakland Center
Thu 08:43:13 PM 36.6747 -121.3289 132° Southeast 470 541 31,100 984 Climbing Oakland Center
Thu 08:44:14 PM 36.5836 -121.2075 133° Southeast 476 548 32,100 1,171 Climbing Oakland Center
Thu 08:45:16 PM 36.4933 -121.0861 133° Southeast 477 549 33,500 1,268 Climbing Oakland Center
Thu 08:46:17 PM 36.3867 -120.9442 133° Southeast 471 542 34,700 738 Climbing Oakland Center
Thu 08:47:18 PM 36.2972 -120.8261 133° Southeast 470 541 35,000 146 Climbing Oakland Center
Thu 08:48:20 PM 36.2075 -120.7075 133° Southeast 470 541 35,000  Level Oakland Center
Thu 08:49:21 PM 36.1178 -120.5897 133° Southeast 469 540 35,000  Level Oakland Center
Thu 08:50:22 PM 36.0269 -120.4692 133° Southeast 482 555 35,000  Level Oakland Center
Thu 08:51:24 PM 35.9375 -120.3544 134° Southeast 466 536 35,000  Level Oakland Center
Thu 08:52:25 PM 35.8450 -120.2353 134° Southeast 474 545 35,000  Level Oakland Center
Thu 08:53:26 PM 35.7528 -120.1156 133° Southeast 476 548 35,000  Level Oakland Center
Thu 08:54:28 PM 35.6600 -119.9956 134° Southeast 478 550 35,000  Level Oakland Center
Thu 08:55:29 PM 35.5517 -119.8975 144° Southeast 479 551 35,000  Level Oakland Center
Thu 08:56:31 PM 35.4400 -119.7989 144° Southeast 486 559 35,000  Level Oakland Center
Thu 08:57:32 PM 35.3289 -119.7042 145° Southeast 484 557 35,000 -209 Level Oakland Center
Thu 08:57:57 PM 35.2628 -119.6472 145° Southeast 485 558 34,700 -897 Descending Los Angeles Center
Thu 08:58:59 PM 35.1528 -119.5525 145° Southeast 483 556 33,700 -1,597 Descending Los Angeles Center
Thu 09:00:01 PM 35.0444 -119.4597 145° Southeast 476 548 31,400 -2,274 Descending Los Angeles Center
Thu 09:01:03 PM 34.9361 -119.3689 145° Southeast 474 545 29,000 -2,323 Descending Los Angeles Center
Thu 09:02:05 PM 34.8331 -119.2847 146° Southeast 453 521 26,600 -2,177 Descending Los Angeles Center
Thu 09:03:07 PM 34.7344 -119.1981 144° Southeast 440 506 24,500 -2,177 Descending Los Angeles Center
Thu 09:04:09 PM 34.6144 -119.0981 146° Southeast 449 517 22,100 -2,419 Descending Los Angeles Center
Thu 09:05:11 PM 34.5086 -119.0075 145° Southeast 453 521 19,500 -2,371 Descending Los Angeles Center
Thu 09:06:13 PM 34.4092 -118.9256 146° Southeast 431 496 17,200 -2,323 Descending Los Angeles Center
Thu 09:07:15 PM 34.3081 -118.8631 153° Southeast 408 470 14,700 -2,352 Descending Los Angeles Center
Thu 09:08:18 PM 34.2022 -118.8247 163° South 395 455 12,300 -1,776 Descending Los Angeles Center
Thu 09:09:20 PM 34.0908 -118.7797 162° South 349 402 11,000 -1,065 Descending Los Angeles Center
Thu 09:10:22 PM 34.0600 -118.6794 110° East 301 346 10,100 -823 Descending Los Angeles Center
Thu 09:11:24 PM 34.0378 -118.5833 106° East 295 339 9,300 -1,056 Descending Los Angeles Center
Thu 09:12:27 PM 34.0181 -118.4922 105° East 281 323 7,900 -1,440 Descending Los Angeles Center
Thu 09:13:29 PM 34.0164 -118.4100 91° East 262 302 6,300 -1,694 Descending Los Angeles Center
Thu 09:14:31 PM 34.0219 -118.3183 86° East 268 308 4,400 -1,403 Descending Los Angeles Center
Thu 09:15:33 PM 34.0006 -118.2322 107° East 252 290 3,400 -871 Descending Los Angeles Center
Thu 09:16:35 PM 33.9642 -118.2717 222° Southwest 208 239 2,600 -968 Descending Los Angeles Center
Thu 09:17:37 PM 33.9608 -118.3242 266° West 177 204 1,400 -871 Descending Los Angeles Center
Thu 09:18:39 PM 33.9569 -118.3669 264° West 149 171 800 -581 Descending Los Angeles Center
Thu 09:19:41 PM 33.9506 -118.4150 261° West 140 161 200 -581 Descending Los Angeles Center
Thu 09:21:00 PM 33.9425 -118.4081 228° Southwest  Level Estimated

Login

Don't have an account? Register now (free) for customized features, flight alerts, and more!